Time;durP1;ratioP1;P1;durP2;ratioP2;P2;SDS_P1;SDS_P2;PMS_P1;PMS_P2;Temp;Humidity;BMP_temperature;BMP_pressure;BME280_temperature;BME280_humidity;BME280_pressure;Samples;Min_cycle;Max_cycle;Signal;HPM_P1;HPM_P2
2022/11/25 00:00:53;;;;;;;8.80;5.18;;;;;;;-5.30;83.24;100283.81;5031974;28;20041;-63
2022/11/25 00:03:19;;;;;;;9.20;5.50;;;;;;;-5.17;83.77;100288.72;5039695;28;20029;-65
2022/11/25 00:05:44;;;;;;;7.88;5.45;;;;;;;-5.10;83.14;100300.88;5023349;28;20025;-64
2022/11/25 00:08:10;;;;;;;8.35;5.50;;;;;;;-5.38;83.39;100304.47;5024134;28;20026;-65
2022/11/25 00:10:35;;;;;;;8.05;5.20;;;;;;;-5.45;84.69;100292.31;5023302;28;20234;-65
2022/11/25 00:13:01;;;;;;;7.07;5.00;;;;;;;-5.43;85.50;100294.91;5023217;28;20078;-64
2022/11/25 00:15:27;;;;;;;8.70;6.05;;;;;;;-5.62;85.82;100283.00;5027940;28;20215;-63
2022/11/25 00:17:52;;;;;;;7.32;5.10;;;;;;;-5.57;85.42;100268.97;5043268;28;20025;-64
2022/11/25 00:20:20;;;;;;;10.23;5.72;;;;;;;-5.58;85.71;100290.78;5023118;28;20022;-64
2022/11/25 00:22:45;;;;;;;8.68;5.75;;;;;;;-5.49;84.79;100287.03;5025386;28;20033;-63
2022/11/25 00:25:11;;;;;;;8.68;5.45;;;;;;;-5.61;85.97;100293.16;5022864;28;20021;-63
2022/11/25 00:27:37;;;;;;;7.85;5.25;;;;;;;-5.56;85.10;100281.66;5029126;28;20202;-64
2022/11/25 00:30:03;;;;;;;7.68;5.13;;;;;;;-5.47;84.41;100283.81;5041761;28;20022;-63
2022/11/25 00:32:31;;;;;;;7.28;5.00;;;;;;;-5.56;84.06;100291.75;5022484;28;20049;-62
2022/11/25 00:34:56;;;;;;;7.57;4.93;;;;;;;-5.58;83.80;100300.03;5039524;28;20029;-63
2022/11/25 00:37:22;;;;;;;7.63;5.25;;;;;;;-5.51;83.61;100297.03;5030810;28;20033;-64
2022/11/25 00:39:47;;;;;;;7.50;5.07;;;;;;;-5.55;83.67;100300.19;5031402;28;20029;-65
2022/11/25 00:44:57;;;;;;;7.28;5.28;;;;;;;-5.44;84.90;100294.06;5030317;28;20037;-64
2022/11/25 00:47:23;;;;;;;8.68;5.60;;;;;;;-5.33;82.91;100301.31;5037162;28;20297;-65
2022/11/25 00:49:52;;;;;;;7.53;5.65;;;;;;;-5.44;83.78;100283.97;5036567;28;20036;-64
2022/11/25 00:52:21;;;;;;;9.77;6.05;;;;;;;-5.30;83.43;100297.31;5036287;28;20033;-64
2022/11/25 00:54:48;;;;;;;9.63;5.60;;;;;;;-5.12;83.42;100302.41;5035831;28;20080;-63
2022/11/25 00:57:16;;;;;;;7.78;6.03;;;;;;;-5.02;83.48;100298.72;5036291;28;20689;-64
2022/11/25 00:59:41;;;;;;;8.02;5.80;;;;;;;-5.11;83.68;100308.34;5034731;28;20022;-64
2022/11/25 01:02:07;;;;;;;9.65;6.75;;;;;;;-4.95;82.77;100315.06;5036328;28;20326;-63
2022/11/25 01:04:33;;;;;;;8.02;5.35;;;;;;;-4.98;82.88;100308.19;5035294;28;20033;-63
2022/11/25 01:07:01;;;;;;;8.23;5.95;;;;;;;-4.99;82.69;100292.97;5037211;28;20076;-64
2022/11/25 01:09:27;;;;;;;9.63;6.53;;;;;;;-4.91;82.46;100311.91;5033659;28;20060;-63
2022/11/25 01:11:53;;;;;;;7.68;5.72;;;;;;;-4.89;82.61;100310.31;5025884;28;20022;-64
2022/11/25 01:14:20;;;;;;;9.32;5.97;;;;;;;-4.80;82.53;100320.91;5025739;28;20061;-63
2022/11/25 01:16:45;;;;;;;7.75;6.03;;;;;;;-4.80;81.77;100308.25;5040609;28;20029;-63
2022/11/25 01:19:11;;;;;;;9.15;6.05;;;;;;;-5.16;82.68;100305.56;5035291;28;20025;-63
2022/11/25 01:21:37;;;;;;;6.68;5.35;;;;;;;-4.94;82.79;100312.59;5028936;28;20038;-63
2022/11/25 01:24:04;;;;;;;9.77;6.05;;;;;;;-4.99;83.65;100318.22;5036031;28;20029;-63
2022/11/25 01:26:31;;;;;;;8.43;6.13;;;;;;;-4.94;83.35;100316.81;5045450;28;20053;-64
2022/11/25 01:28:59;;;;;;;9.63;7.03;;;;;;;-5.01;82.72;100302.13;5028846;28;20411;-64
2022/11/25 01:31:28;;;;;;;9.07;5.97;;;;;;;-5.08;82.85;100308.50;5037114;28;20044;-64
2022/11/25 01:33:57;;;;;;;9.15;6.00;;;;;;;-5.13;83.17;100309.91;5037581;28;20121;-64
2022/11/25 01:36:23;;;;;;;7.85;5.28;;;;;;;-5.37;83.52;100333.09;5028742;28;20029;-64
2022/11/25 01:38:51;;;;;;;8.20;5.25;;;;;;;-5.40;83.62;100321.19;5031528;28;20029;-63
2022/11/25 01:41:18;;;;;;;9.40;5.93;;;;;;;-5.37;83.40;100336.50;5044739;28;20313;-65
2022/11/25 01:44:12;;;;;;;6.55;5.07;;;;;;;-5.25;82.96;100326.16;5031509;28;20057;-64
2022/11/25 01:46:44;;;;;;;7.93;5.50;;;;;;;-5.33;83.31;100340.06;5039546;28;20032;-63
2022/11/25 01:49:23;;;;;;;8.95;6.07;;;;;;;-5.20;84.09;100331.47;5036386;28;20068;-64
2022/11/25 01:51:54;;;;;;;7.45;5.65;;;;;;;-4.97;82.73;100341.88;5030298;28;20033;-63
2022/11/25 01:54:24;;;;;;;7.13;5.38;;;;;;;-5.01;83.45;100371.16;5034000;28;20348;-64
2022/11/25 01:57:00;;;;;;;7.82;5.35;;;;;;;-5.12;83.18;100334.38;5032785;28;20101;-63
2022/11/25 01:59:28;;;;;;;8.02;5.78;;;;;;;-4.96;81.75;100346.16;5033784;28;20048;-64
2022/11/25 02:01:57;;;;;;;8.20;5.55;;;;;;;-5.00;81.88;100331.63;5032961;28;20034;-63
2022/11/25 02:04:26;;;;;;;7.95;5.35;;;;;;;-5.05;82.09;100327.19;5025707;28;20210;-63
2022/11/25 02:06:58;;;;;;;7.55;4.95;;;;;;;-5.01;81.71;100352.63;5027638;28;20022;-63
2022/11/25 02:09:26;;;;;;;8.32;6.15;;;;;;;-4.98;82.32;100330.91;5025878;28;20030;-64
2022/11/25 02:11:53;;;;;;;6.95;4.93;;;;;;;-5.11;82.44;100349.63;5037136;28;20034;-64
2022/11/25 02:14:21;;;;;;;9.20;5.60;;;;;;;-5.18;83.40;100337.47;5037922;28;20057;-63
2022/11/25 02:16:50;;;;;;;8.55;5.22;;;;;;;-5.24;84.15;100354.81;5028291;28;20025;-63
2022/11/25 02:19:27;;;;;;;9.93;5.93;;;;;;;-5.13;83.86;100325.97;5043985;28;20254;-64
2022/11/25 02:22:02;;;;;;;8.60;5.78;;;;;;;-5.15;82.64;100314.88;5031265;28;20143;-64
2022/11/25 02:24:44;;;;;;;9.82;6.05;;;;;;;-5.19;84.14;100335.72;5038828;28;20026;-63
2022/11/25 02:27:12;;;;;;;8.75;5.95;;;;;;;-5.11;83.73;100348.75;5025111;28;20089;-63
2022/11/25 02:29:39;;;;;;;10.65;6.38;;;;;;;-4.96;82.97;100339.47;5035127;28;20124;-63
2022/11/25 02:32:05;;;;;;;9.65;6.65;;;;;;;-5.10;82.91;100328.63;5039428;28;20080;-65
2022/11/25 02:34:30;;;;;;;9.63;6.82;;;;;;;-5.01;83.95;100340.88;5025505;28;20031;-64
2022/11/25 02:36:58;;;;;;;10.65;6.50;;;;;;;-5.26;84.24;100328.59;5024945;28;20033;-63
2022/11/25 02:39:24;;;;;;;9.23;6.70;;;;;;;-4.91;84.54;100343.06;5041224;28;20182;-62
2022/11/25 02:41:57;;;;;;;10.90;6.97;;;;;;;-5.01;83.77;100332.44;5033230;28;20040;-63
2022/11/25 02:44:23;;;;;;;10.20;7.20;;;;;;;-4.90;84.17;100342.28;5032654;28;20096;-62
2022/11/25 02:46:49;;;;;;;11.23;7.25;;;;;;;-4.81;83.93;100351.13;5040039;28;20028;-63
2022/11/25 02:49:15;;;;;;;11.98;7.25;;;;;;;-4.96;83.96;100325.94;5024691;28;20053;-63
2022/11/25 02:51:43;;;;;;;11.35;7.10;;;;;;;-4.92;84.86;100350.56;5035170;28;20021;-63
2022/11/25 02:54:10;;;;;;;10.98;7.65;;;;;;;-4.94;84.12;100345.44;5030790;28;20018;-64
2022/11/25 02:56:37;;;;;;;9.77;7.25;;;;;;;-4.84;83.83;100344.25;5023580;28;20022;-63
2022/11/25 02:59:03;;;;;;;12.18;6.90;;;;;;;-5.01;83.68;100345.91;5029240;28;20032;-63
2022/11/25 03:01:30;;;;;;;10.15;6.30;;;;;;;-5.01;84.51;100352.63;5044194;28;20041;-63
2022/11/25 03:03:56;;;;;;;8.95;6.18;;;;;;;-4.90;83.43;100354.06;5024609;28;20256;-62
2022/11/25 03:06:21;;;;;;;10.60;6.68;;;;;;;-4.95;83.37;100365.56;5039991;28;20348;-63
2022/11/25 03:08:47;;;;;;;10.27;6.53;;;;;;;-4.93;83.50;100354.75;5043431;28;20025;-64
2022/11/25 03:11:13;;;;;;;9.52;6.38;;;;;;;-4.78;83.43;100374.88;5038004;28;20033;-63
2022/11/25 03:13:39;;;;;;;10.52;6.70;;;;;;;-4.71;84.58;100374.41;5024694;28;20052;-63
2022/11/25 03:16:05;;;;;;;11.45;7.13;;;;;;;-4.74;82.95;100359.09;5024463;28;20202;-64
2022/11/25 03:18:30;;;;;;;8.63;5.78;;;;;;;-4.91;83.72;100377.56;5040933;28;20021;-64
2022/11/25 03:20:56;;;;;;;10.38;6.90;;;;;;;-4.83;84.67;100380.47;5038960;28;20348;-62
2022/11/25 03:23:22;;;;;;;11.55;7.15;;;;;;;-5.18;83.74;100377.00;5025978;28;20225;-64
2022/11/25 03:25:47;;;;;;;13.68;7.00;;;;;;;-4.97;85.24;100388.22;5032151;28;20036;-64
2022/11/25 03:28:13;;;;;;;12.02;7.55;;;;;;;-4.88;84.47;100392.88;5024046;28;20017;-64
2022/11/25 03:30:39;;;;;;;12.13;7.40;;;;;;;-4.84;85.12;100394.78;5041645;28;20034;-64
2022/11/25 03:33:04;;;;;;;12.45;7.63;;;;;;;-4.77;83.94;100391.78;5030792;28;20144;-64
2022/11/25 03:35:30;;;;;;;12.60;8.15;;;;;;;-4.76;83.84;100398.56;5023972;28;20022;-64
2022/11/25 03:37:56;;;;;;;12.18;7.28;;;;;;;-5.01;84.69;100409.03;5024388;28;20032;-65
2022/11/25 03:40:21;;;;;;;12.15;7.45;;;;;;;-5.05;85.25;100410.53;5030718;28;20044;-65
2022/11/25 03:42:47;;;;;;;16.20;9.75;;;;;;;-4.84;84.75;100412.47;5024986;28;20037;-62
2022/11/25 03:45:14;;;;;;;18.92;9.90;;;;;;;-4.85;84.66;100420.81;5023832;28;20022;-63
2022/11/25 03:47:41;;;;;;;13.18;7.97;;;;;;;-4.89;84.66;100424.84;5037547;28;20029;-64
2022/11/25 03:50:08;;;;;;;13.32;7.85;;;;;;;-4.87;84.20;100414.84;5043357;28;20088;-63
2022/11/25 03:52:33;;;;;;;13.05;8.35;;;;;;;-4.98;84.33;100415.94;5035502;28;20025;-63
2022/11/25 03:54:59;;;;;;;12.52;7.38;;;;;;;-5.06;84.53;100416.38;5023668;28;20072;-63
2022/11/25 03:57:25;;;;;;;12.18;7.90;;;;;;;-4.98;85.80;100431.06;5038885;28;20072;-62
2022/11/25 03:59:50;;;;;;;12.85;7.85;;;;;;;-5.23;85.89;100424.69;5032370;28;20089;-63
2022/11/25 04:02:16;;;;;;;15.40;8.20;;;;;;;-4.99;85.68;100420.09;5029444;28;20088;-64
2022/11/25 04:04:42;;;;;;;10.15;7.03;;;;;;;-5.02;84.21;100419.94;5032892;28;20030;-63
2022/11/25 04:07:07;;;;;;;12.65;7.90;;;;;;;-4.96;85.61;100429.50;5043348;28;20022;-64
2022/11/25 04:09:34;;;;;;;12.07;8.35;;;;;;;-4.90;83.98;100422.25;5025347;28;20041;-64
2022/11/25 04:14:43;;;;;;;11.93;7.40;;;;;;;-4.91;83.36;100449.16;5029862;28;20037;-64
2022/11/25 04:17:09;;;;;;;10.18;6.15;;;;;;;-4.82;83.07;100433.59;5037946;28;20021;-65
2022/11/25 04:19:34;;;;;;;11.73;6.90;;;;;;;-4.77;84.41;100432.19;5021751;28;20025;-63
2022/11/25 04:22:01;;;;;;;9.80;6.97;;;;;;;-4.64;82.62;100435.38;5030262;28;20013;-65
2022/11/25 04:24:27;;;;;;;10.90;7.32;;;;;;;-4.82;83.04;100441.19;5027591;28;20026;-64
2022/11/25 04:26:53;;;;;;;12.55;7.38;;;;;;;-4.68;83.69;100434.34;5023167;28;20357;-64
2022/11/25 04:29:19;;;;;;;12.27;7.90;;;;;;;-4.82;82.92;100441.19;5029091;28;20057;-66
2022/11/25 04:31:45;;;;;;;12.05;7.80;;;;;;;-5.12;83.44;100392.47;5041377;28;20036;-67
2022/11/25 04:34:10;;;;;;;12.50;7.70;;;;;;;-4.86;83.54;100429.19;5023079;28;20026;-68
2022/11/25 04:36:36;;;;;;;9.85;6.60;;;;;;;-4.91;82.64;100421.38;5037115;28;20022;-64
2022/11/25 04:39:02;;;;;;;10.93;6.28;;;;;;;-4.99;82.99;100444.47;5034859;28;20321;-65
2022/11/25 04:41:27;;;;;;;9.65;6.05;;;;;;;-4.91;83.15;100433.13;5027690;28;20199;-64
2022/11/25 04:43:53;;;;;;;8.65;6.22;;;;;;;-4.90;84.10;100447.50;5025593;28;20034;-64
2022/11/25 04:46:22;;;;;;;10.52;6.63;;;;;;;-5.28;84.37;100437.06;5042964;28;20056;-64
2022/11/25 04:48:49;;;;;;;9.50;6.05;;;;;;;-4.91;83.14;100451.66;5024414;28;20318;-63
2022/11/25 04:51:14;;;;;;;10.32;6.70;;;;;;;-4.95;83.53;100457.34;5035291;28;20105;-63
2022/11/25 04:53:40;;;;;;;11.20;6.57;;;;;;;-5.05;83.60;100466.09;5025602;28;20030;-65
2022/11/25 04:56:06;;;;;;;10.55;6.97;;;;;;;-4.98;83.64;100464.75;5026027;28;20029;-65
2022/11/25 05:01:15;;;;;;;11.05;6.60;;;;;;;-5.00;84.56;100457.88;5022805;28;20104;-65
2022/11/25 05:03:41;;;;;;;10.05;6.88;;;;;;;-4.73;84.03;100461.00;5039733;28;20221;-65
2022/11/25 05:06:07;;;;;;;11.85;6.97;;;;;;;-5.01;84.66;100456.16;5042690;28;20033;-65
2022/11/25 05:08:34;;;;;;;11.48;6.65;;;;;;;-4.99;84.80;100452.06;5034683;28;20030;-65
2022/11/25 05:10:59;;;;;;;12.25;6.47;;;;;;;-4.95;84.50;100459.00;5022050;28;20121;-64
2022/11/25 05:13:26;;;;;;;10.77;7.30;;;;;;;-4.86;84.73;100454.44;5023044;28;20317;-66
2022/11/25 05:15:51;;;;;;;11.40;7.15;;;;;;;-4.78;84.82;100459.91;5041105;28;20532;-65
2022/11/25 05:18:17;;;;;;;14.43;7.40;;;;;;;-4.97;84.86;100463.97;5028654;28;20025;-65
2022/11/25 05:20:43;;;;;;;11.57;7.03;;;;;;;-4.81;82.86;100470.72;5031802;28;20032;-65
2022/11/25 05:23:08;;;;;;;10.93;6.93;;;;;;;-4.82;82.70;100463.91;5029887;28;20341;-65
2022/11/25 05:25:34;;;;;;;11.25;7.00;;;;;;;-5.07;83.62;100476.91;5041376;28;20052;-65
2022/11/25 05:28:00;;;;;;;11.48;6.80;;;;;;;-5.13;84.78;100464.81;5022882;28;20034;-66
2022/11/25 05:30:25;;;;;;;9.95;6.25;;;;;;;-5.07;85.15;100460.09;5038090;28;20095;-64
2022/11/25 05:32:51;;;;;;;11.65;6.70;;;;;;;-5.15;84.54;100461.31;5035988;28;20030;-63
2022/11/25 05:35:17;;;;;;;12.65;7.45;;;;;;;-5.01;84.89;100461.22;5031496;28;20021;-64
2022/11/25 05:37:43;;;;;;;13.50;7.40;;;;;;;-4.99;85.36;100460.50;5028022;28;20179;-64
2022/11/25 05:40:09;;;;;;;12.93;6.90;;;;;;;-4.87;84.32;100475.47;5037575;28;20033;-64
2022/11/25 05:42:35;;;;;;;11.30;7.50;;;;;;;-5.00;85.36;100468.88;5041922;28;20249;-65
2022/11/25 05:45:01;;;;;;;12.25;7.63;;;;;;;-4.87;84.31;100460.31;5034170;28;20038;-64
2022/11/25 05:47:27;;;;;;;12.73;7.45;;;;;;;-4.74;84.65;100471.94;5025701;28;20329;-64
2022/11/25 05:49:53;;;;;;;12.05;7.53;;;;;;;-4.69;83.81;100478.97;5032576;28;20041;-66
2022/11/25 05:52:18;;;;;;;12.52;7.97;;;;;;;-4.70;83.20;100483.94;5036559;28;20033;-66
2022/11/25 05:54:44;;;;;;;15.10;8.55;;;;;;;-4.60;84.04;100472.63;5024593;28;20265;-66
2022/11/25 05:57:09;;;;;;;13.70;7.10;;;;;;;-4.72;83.29;100481.31;5037758;28;20052;-65
2022/11/25 05:59:35;;;;;;;12.73;7.47;;;;;;;-4.73;84.40;100489.69;5037911;28;20080;-66
2022/11/25 06:02:01;;;;;;;13.57;7.40;;;;;;;-4.84;84.82;100490.78;5028579;28;20033;-66
2022/11/25 06:04:26;;;;;;;10.85;7.28;;;;;;;-4.90;83.38;100482.88;5025759;28;20033;-65
2022/11/25 06:06:52;;;;;;;12.75;7.72;;;;;;;-4.95;84.33;100480.06;5025631;28;20145;-64
2022/11/25 06:09:17;;;;;;;14.18;7.55;;;;;;;-5.03;85.60;100492.31;5037245;28;20033;-65
2022/11/25 06:11:43;;;;;;;12.57;8.35;;;;;;;-4.89;85.23;100488.00;5032813;28;20045;-65
2022/11/25 06:14:08;;;;;;;13.90;8.45;;;;;;;-4.91;84.13;100487.03;5040884;28;20294;-64
2022/11/25 06:16:34;;;;;;;11.57;7.05;;;;;;;-4.92;84.07;100499.59;5045394;28;20096;-66
2022/11/25 06:19:04;;;;;;;12.95;7.22;;;;;;;-4.95;83.93;100486.78;5036736;28;20032;-64
2022/11/25 06:21:30;;;;;;;14.40;7.88;;;;;;;-4.92;84.29;100490.34;5036748;28;20037;-63
2022/11/25 06:23:55;;;;;;;11.80;7.32;;;;;;;-4.92;84.43;100492.00;5034619;28;20112;-63
2022/11/25 06:26:22;;;;;;;15.32;7.65;;;;;;;-4.87;84.35;100500.72;5025310;28;20306;-65
2022/11/25 06:28:49;;;;;;;12.98;7.70;;;;;;;-4.90;83.95;100490.44;5025883;28;20353;-65
2022/11/25 06:31:17;;;;;;;14.82;8.00;;;;;;;-5.06;84.07;100488.72;5044658;28;20033;-65
2022/11/25 06:33:47;;;;;;;15.88;8.20;;;;;;;-4.89;83.95;100515.78;5028158;28;20092;-64
2022/11/25 06:36:16;;;;;;;15.43;8.00;;;;;;;-4.86;84.36;100515.06;5024811;28;20352;-64
2022/11/25 06:38:51;;;;;;;13.13;7.43;;;;;;;-5.02;83.87;100513.38;5032766;28;20302;-65
2022/11/25 06:41:17;;;;;;;11.95;7.13;;;;;;;-5.04;84.51;100512.44;5031426;28;20029;-65
2022/11/25 06:43:43;;;;;;;11.27;7.30;;;;;;;-4.86;84.11;100513.44;5044278;28;20325;-65
2022/11/25 06:46:12;;;;;;;14.13;7.80;;;;;;;-4.81;84.02;100521.25;5024604;28;20045;-67
2022/11/25 06:48:37;;;;;;;12.05;7.13;;;;;;;-4.80;84.07;100517.94;5024835;28;20026;-64
2022/11/25 06:51:06;;;;;;;11.52;7.00;;;;;;;-4.96;83.31;100518.78;5024343;28;20265;-64
2022/11/25 06:53:32;;;;;;;14.63;7.97;;;;;;;-4.87;84.02;100521.78;5024905;28;20022;-64
2022/11/25 06:56:08;;;;;;;12.13;6.75;;;;;;;-4.88;82.38;100520.03;5026793;28;20024;-63
2022/11/25 06:58:34;;;;;;;11.90;7.38;;;;;;;-4.88;82.86;100531.81;5024654;28;20097;-64
2022/11/25 07:01:05;;;;;;;13.88;7.95;;;;;;;-4.90;84.13;100523.28;5043046;28;20264;-63
2022/11/25 07:03:31;;;;;;;12.45;7.80;;;;;;;-4.88;84.71;100531.81;5029553;28;20030;-64
2022/11/25 07:05:58;;;;;;;23.70;12.45;;;;;;;-4.83;82.78;100527.00;5034295;28;20048;-63
2022/11/25 07:08:27;;;;;;;11.57;7.45;;;;;;;-4.84;83.11;100531.19;5043274;28;20021;-64
2022/11/25 07:10:53;;;;;;;12.75;7.57;;;;;;;-4.91;81.79;100526.59;5042634;28;20037;-63
2022/11/25 07:13:20;;;;;;;11.07;6.95;;;;;;;-4.76;82.09;100546.75;5023855;28;20054;-64
2022/11/25 07:15:46;;;;;;;12.10;7.18;;;;;;;-4.58;81.69;100551.94;5023903;28;20348;-64
2022/11/25 07:18:11;;;;;;;12.75;7.47;;;;;;;-4.74;81.63;100546.03;5035707;28;20025;-65
2022/11/25 07:20:38;;;;;;;12.00;6.78;;;;;;;-4.87;83.03;100544.50;5036517;28;20030;-64
2022/11/25 07:23:03;;;;;;;10.18;5.50;;;;;;;-4.87;82.41;100546.19;5036001;28;20033;-65
2022/11/25 07:25:29;;;;;;;14.80;7.10;;;;;;;-4.98;83.01;100547.25;5024720;28;20199;-65
2022/11/25 07:27:55;;;;;;;11.90;6.53;;;;;;;-5.00;83.24;100576.59;5025855;28;20313;-65
2022/11/25 07:30:21;;;;;;;10.25;6.03;;;;;;;-5.07;82.06;100540.03;5024073;28;20057;-64
2022/11/25 07:32:46;;;;;;;12.10;6.60;;;;;;;-5.00;82.70;100543.75;5023733;28;20076;-64
2022/11/25 07:35:12;;;;;;;11.60;6.53;;;;;;;-4.98;82.67;100552.31;5023619;28;20032;-65
2022/11/25 07:37:37;;;;;;;11.50;5.97;;;;;;;-5.16;82.61;100558.03;5041940;28;20200;-64
2022/11/25 07:40:03;;;;;;;15.05;6.95;;;;;;;-4.86;83.38;100555.47;5024923;28;20082;-64
2022/11/25 07:42:29;;;;;;;11.60;6.68;;;;;;;-4.90;83.48;100561.19;5024024;28;20309;-66
2022/11/25 07:44:55;;;;;;;9.77;5.35;;;;;;;-4.95;82.41;100555.00;5023747;28;20025;-63
2022/11/25 07:47:20;;;;;;;15.15;6.53;;;;;;;-4.78;83.20;100571.94;5027382;28;20029;-65
2022/11/25 07:49:46;;;;;;;11.02;6.38;;;;;;;-4.99;83.62;100565.69;5037046;28;20261;-65
2022/11/25 07:52:11;;;;;;;13.25;6.65;;;;;;;-5.00;82.36;100562.31;5038057;28;20044;-64
2022/11/25 07:54:37;;;;;;;10.20;6.65;;;;;;;-4.88;83.11;100564.63;5031537;28;20059;-65
2022/11/25 07:57:02;;;;;;;13.23;7.57;;;;;;;-4.78;83.97;100571.94;5036593;28;20352;-65
2022/11/25 07:59:28;;;;;;;14.82;7.55;;;;;;;-4.79;83.88;100567.66;5037763;28;20088;-65
2022/11/25 08:01:55;;;;;;;13.98;7.93;;;;;;;-4.73;83.63;100557.91;5028513;28;20025;-66
2022/11/25 08:04:21;;;;;;;13.50;7.25;;;;;;;-4.62;82.36;100568.56;5040384;28;20033;-65
2022/11/25 08:06:49;;;;;;;11.98;7.78;;;;;;;-4.71;82.19;100556.31;5026897;28;20361;-66
2022/11/25 08:09:18;;;;;;;12.20;7.45;;;;;;;-4.68;82.17;100564.06;5023882;28;20045;-64
2022/11/25 08:11:45;;;;;;;10.88;7.22;;;;;;;-4.64;82.07;100585.31;5029131;28;20030;-65
2022/11/25 08:14:11;;;;;;;15.00;7.10;;;;;;;-4.71;82.34;100579.06;5025687;28;20298;-67
2022/11/25 08:16:38;;;;;;;9.95;6.55;;;;;;;-4.67;82.91;100572.53;5033725;28;20050;-67
2022/11/25 08:19:07;;;;;;;12.90;7.30;;;;;;;-4.74;82.13;100583.94;5024235;28;20030;-64
2022/11/25 08:21:33;;;;;;;12.68;6.70;;;;;;;-4.74;82.82;100578.03;5028642;28;20409;-65
2022/11/25 08:23:58;;;;;;;12.55;7.55;;;;;;;-4.69;83.41;100569.03;5022690;28;20029;-64
2022/11/25 08:26:30;;;;;;;10.65;6.97;;;;;;;-4.62;83.30;100567.72;5023095;28;20029;-65
2022/11/25 08:28:59;;;;;;;13.15;7.50;;;;;;;-4.44;82.40;100580.47;5023667;28;20029;-65
2022/11/25 08:31:31;;;;;;;13.63;6.78;;;;;;;-4.60;82.52;100566.13;5040321;28;20040;-64
2022/11/25 08:33:57;;;;;;;12.23;7.43;;;;;;;-4.32;81.78;100587.84;5033005;28;20048;-64
2022/11/25 08:36:23;;;;;;;10.02;7.25;;;;;;;-4.43;81.96;100580.56;5030024;28;20113;-64
2022/11/25 08:38:52;;;;;;;11.35;7.60;;;;;;;-4.58;83.51;100582.25;5023052;28;20030;-64
2022/11/25 08:41:20;;;;;;;11.65;7.13;;;;;;;-4.38;82.68;100584.19;5026597;28;20332;-67
2022/11/25 08:43:46;;;;;;;12.10;7.07;;;;;;;-4.38;82.03;100581.66;5023198;28;20037;-66
2022/11/25 08:46:16;;;;;;;11.35;6.82;;;;;;;-4.44;82.12;100563.66;5042147;28;20209;-65
2022/11/25 08:48:43;;;;;;;12.23;7.22;;;;;;;-4.25;81.37;100580.66;5027545;28;20092;-67
2022/11/25 08:51:12;;;;;;;10.38;6.97;;;;;;;-4.36;80.71;100574.16;5022379;28;20165;-66
2022/11/25 08:53:39;;;;;;;12.52;6.95;;;;;;;-4.60;82.92;100592.28;5039511;28;20025;-65
2022/11/25 08:56:06;;;;;;;11.00;7.07;;;;;;;-4.30;82.54;100592.19;5040738;28;20056;-66
2022/11/25 08:58:32;;;;;;;8.43;6.07;;;;;;;-4.35;82.47;100586.91;5023073;28;20026;-66
2022/11/25 09:00:58;;;;;;;12.77;7.22;;;;;;;-4.43;81.66;100592.31;5023633;28;20022;-66
2022/11/25 09:03:23;;;;;;;8.55;5.88;;;;;;;-4.86;82.16;100575.69;5035250;28;20225;-65
2022/11/25 09:05:51;;;;;;;11.65;7.15;;;;;;;-4.48;83.08;100593.75;5044341;28;20040;-67
2022/11/25 09:08:16;;;;;;;12.95;7.57;;;;;;;-4.80;81.99;100549.88;5041822;28;20033;-68
2022/11/25 09:10:42;;;;;;;9.27;6.18;;;;;;;-4.95;82.47;100558.38;5038648;28;20048;-67
2022/11/25 09:13:09;;;;;;;12.80;6.85;;;;;;;-4.55;82.83;100597.59;5027706;28;20068;-66
2022/11/25 09:15:35;;;;;;;9.98;6.97;;;;;;;-4.68;83.98;100601.09;5026426;28;20037;-65
2022/11/25 09:18:04;;;;;;;12.88;7.25;;;;;;;-4.71;83.70;100580.72;5026348;28;20097;-65
2022/11/25 09:20:31;;;;;;;10.88;6.53;;;;;;;-4.77;83.78;100609.03;5031304;28;20030;-65
2022/11/25 09:23:01;;;;;;;11.15;6.78;;;;;;;-4.37;84.13;100601.09;5040171;28;20213;-66
2022/11/25 09:25:26;;;;;;;10.85;6.90;;;;;;;-4.76;83.06;100598.16;5027777;28;20042;-66
2022/11/25 09:27:52;;;;;;;11.98;8.20;;;;;;;-4.54;83.96;100605.25;5039637;28;20060;-66
2022/11/25 09:30:18;;;;;;;12.05;7.00;;;;;;;-4.66;83.66;100586.88;5039795;28;20022;-66
2022/11/25 09:32:47;;;;;;;10.50;7.28;;;;;;;-4.39;83.89;100586.63;5034213;28;20053;-66
2022/11/25 09:35:13;;;;;;;10.45;7.10;;;;;;;-4.39;83.19;100587.53;5028358;28;20317;-65
2022/11/25 09:37:38;;;;;;;14.90;7.60;;;;;;;-4.36;83.62;100591.84;5035433;28;20025;-65
2022/11/25 09:40:07;;;;;;;11.73;8.13;;;;;;;-4.36;82.22;100569.97;5033777;28;20040;-66
2022/11/25 09:49:17;;;;;;;10.38;6.68;;;;;;;-4.37;83.03;100601.09;5038727;28;20021;-66
2022/11/25 09:51:46;;;;;;;11.80;6.88;;;;;;;-4.38;82.66;100603.56;5054084;28;20033;-66
2022/11/25 09:54:20;;;;;;;11.00;7.15;;;;;;;-4.45;83.62;100598.94;5031273;28;20026;-66
2022/11/25 09:57:34;;;;;;;10.23;7.38;;;;;;;-4.50;84.26;100596.19;5025553;28;20191;-65
2022/11/25 10:00:14;;;;;;;10.43;7.28;;;;;;;-4.58;83.62;100598.28;5023398;28;20306;-66
2022/11/25 10:03:01;;;;;;;11.45;6.97;;;;;;;-4.68;83.81;100604.47;5037403;28;20026;-66
2022/11/25 10:05:38;;;;;;;13.52;7.85;;;;;;;-4.70;84.06;100583.34;5041098;28;20040;-66
2022/11/25 10:08:17;;;;;;;13.63;8.63;;;;;;;-4.73;85.04;100585.69;5030445;28;20052;-65
2022/11/25 10:11:05;;;;;;;11.30;7.57;;;;;;;-4.67;84.71;100577.59;5032063;28;20045;-66
2022/11/25 10:13:47;;;;;;;11.65;7.85;;;;;;;-4.37;84.05;100606.16;5030763;28;20054;-66
2022/11/25 10:16:38;;;;;;;;;;;;;;;-4.49;85.02;100610.53;5025045;28;20034;-65
2022/11/25 10:19:37;;;;;;;13.98;9.07;;;;;;;-4.81;84.43;100607.13;5034045;28;19928;-65
2022/11/25 10:22:11;;;;;;;12.18;8.10;;;;;;;-4.82;86.06;100597.81;5029782;28;20030;-65
2022/11/25 10:24:37;;;;;;;11.18;8.02;;;;;;;-4.70;85.94;100611.13;5034184;28;20060;-65
2022/11/25 10:27:13;;;;;;;11.02;6.72;;;;;;;-4.55;84.76;100597.59;5034080;28;20364;-65
2022/11/25 10:29:40;;;;;;;13.77;8.45;;;;;;;-4.46;84.24;100608.22;5034954;28;20302;-65
2022/11/25 10:32:15;;;;;;;13.38;9.90;;;;;;;-4.43;84.22;100607.47;5033453;28;20022;-64
2022/11/25 10:34:48;;;;;;;12.23;8.38;;;;;;;-4.39;84.79;100591.69;5038742;28;20038;-65
2022/11/25 10:37:30;;;;;;;14.60;9.00;;;;;;;-4.28;83.98;100600.72;5036225;28;20421;-65
2022/11/25 10:39:56;;;;;;;16.00;8.70;;;;;;;-4.02;83.54;100624.88;5032056;28;20368;-65
2022/11/25 10:42:24;;;;;;;14.10;9.13;;;;;;;-4.10;84.28;100631.19;5029950;28;20029;-66
2022/11/25 10:44:51;;;;;;;14.70;8.95;;;;;;;-4.19;83.94;100610.44;5033222;28;20036;-65
2022/11/25 10:48:01;;;;;;;13.68;9.25;;;;;;;-4.11;83.91;100629.44;5033206;28;20046;-63
2022/11/25 10:50:51;;;;;;;12.35;8.27;;;;;;;-4.28;84.10;100637.78;5052983;28;20049;-65
2022/11/25 10:53:24;;;;;;;12.13;8.18;;;;;;;-4.47;83.54;100619.09;5025281;28;20079;-63
2022/11/25 10:56:15;;;;;;;13.13;8.07;;;;;;;-4.46;85.10;100637.66;5031364;28;20261;-65
2022/11/25 10:58:41;;;;;;;12.80;8.50;;;;;;;-4.43;84.45;100651.34;5024746;28;20089;-64
2022/11/25 11:01:19;;;;;;;12.25;7.80;;;;;;;-4.32;84.69;100646.00;5031594;28;20325;-64
2022/11/25 11:04:04;;;;;;;10.18;7.18;;;;;;;-4.32;83.27;100651.03;5042083;28;20040;-64
2022/11/25 11:06:41;;;;;;;10.63;7.93;;;;;;;-4.29;83.48;100656.25;5036170;28;20029;-64
2022/11/25 11:09:41;;;;;;;10.80;7.40;;;;;;;-4.38;84.78;100656.63;5034526;28;20021;-64
2022/11/25 11:12:19;;;;;;;10.90;7.50;;;;;;;-4.57;85.06;100657.28;5024151;28;20083;-63
2022/11/25 11:14:45;;;;;;;11.30;7.57;;;;;;;-4.58;84.69;100658.94;5031484;28;20043;-63
2022/11/25 11:17:26;;;;;;;11.55;7.40;;;;;;;-4.47;84.38;100649.44;5042345;28;20033;-63
2022/11/25 11:20:06;;;;;;;9.32;7.00;;;;;;;-4.53;84.71;100655.00;5024063;28;20029;-63
2022/11/25 11:22:34;;;;;;;9.40;6.68;;;;;;;-4.49;84.49;100656.03;5039355;28;20021;-64
2022/11/25 11:25:13;;;;;;;12.20;7.88;;;;;;;-4.57;84.61;100634.56;5033320;28;20021;-63
2022/11/25 11:27:39;;;;;;;10.35;7.13;;;;;;;-4.40;84.51;100663.28;5028884;28;20325;-64
2022/11/25 11:30:22;;;;;;;10.48;7.38;;;;;;;-4.39;85.30;100655.78;5032034;28;20025;-64
2022/11/25 11:33:01;;;;;;;11.35;7.10;;;;;;;-4.60;84.05;100649.53;5033430;28;20041;-62
2022/11/25 11:35:41;;;;;;;11.43;7.13;;;;;;;-4.52;84.86;100658.41;5034012;28;20030;-64
2022/11/25 11:38:17;;;;;;;8.55;6.30;;;;;;;-4.58;84.96;100653.03;5032983;28;20032;-63
2022/11/25 11:40:54;;;;;;;9.68;7.53;;;;;;;-4.78;85.59;100634.22;5031102;28;20034;-64